Aviation Digital Data Service (ADDS)

Output produced by METARs form (1243 UTC 22 February 2018)
found at http://www.aviationweather.gov/adds/metars/
 
LATI 221220Z 28004KT 220V330 9999 FEW050 SCT070 17/06 Q1006 NOSIG
TAF LATI 221100Z 2212/2312 24010KT 9999 FEW030TCU BKN060 TX17/2212Z TN07/2305Z 
     BECMG 2217/2219 VRB04KT SCT050 BKN080
       
LATI 221220Z 28004KT 220V330 9999 FEW050 SCT070 17/06 Q1006 NOSIG
TAF LATI 221100Z 2212/2312 24010KT 9999 FEW030TCU BKN060 TX17/2212Z TN07/2305Z 
     BECMG 2217/2219 VRB04KT SCT050 BKN080